sensor_id;sensor_type;location;lat;lon;timestamp;P1;durP1;ratioP1;P2;durP2;ratioP2
15712;SDS011;7957;51.608;6.916;2022-09-09T00:02:11;1.63;;;1.43;;
15712;SDS011;7957;51.608;6.916;2022-09-09T00:04:43;2.07;;;1.50;;
15712;SDS011;7957;51.608;6.916;2022-09-09T00:07:15;1.87;;;1.40;;
15712;SDS011;7957;51.608;6.916;2022-09-09T00:09:48;1.73;;;1.50;;
15712;SDS011;7957;51.608;6.916;2022-09-09T00:12:24;2.97;;;1.40;;
15712;SDS011;7957;51.608;6.916;2022-09-09T00:15:00;1.60;;;1.40;;
15712;SDS011;7957;51.608;6.916;2022-09-09T00:17:33;2.17;;;1.50;;
15712;SDS011;7957;51.608;6.916;2022-09-09T00:20:05;1.70;;;1.30;;
15712;SDS011;7957;51.608;6.916;2022-09-09T00:22:39;2.00;;;1.37;;
15712;SDS011;7957;51.608;6.916;2022-09-09T00:25:11;2.10;;;1.30;;
15712;SDS011;7957;51.608;6.916;2022-09-09T00:27:45;2.17;;;1.57;;
15712;SDS011;7957;51.608;6.916;2022-09-09T00:30:14;2.60;;;1.40;;
15712;SDS011;7957;51.608;6.916;2022-09-09T00:32:45;2.00;;;1.47;;
15712;SDS011;7957;51.608;6.916;2022-09-09T00:35:14;3.00;;;1.40;;
15712;SDS011;7957;51.608;6.916;2022-09-09T00:37:45;2.07;;;1.47;;
15712;SDS011;7957;51.608;6.916;2022-09-09T00:40:18;1.80;;;1.33;;
15712;SDS011;7957;51.608;6.916;2022-09-09T00:42:54;2.17;;;1.30;;
15712;SDS011;7957;51.608;6.916;2022-09-09T00:45:45;2.27;;;1.40;;
15712;SDS011;7957;51.608;6.916;2022-09-09T00:48:26;2.33;;;1.70;;
15712;SDS011;7957;51.608;6.916;2022-09-09T00:51:02;2.17;;;1.47;;
15712;SDS011;7957;51.608;6.916;2022-09-09T00:53:38;1.50;;;1.40;;
15712;SDS011;7957;51.608;6.916;2022-09-09T00:56:22;2.73;;;1.87;;
15712;SDS011;7957;51.608;6.916;2022-09-09T00:58:55;1.97;;;1.50;;
15712;SDS011;7957;51.608;6.916;2022-09-09T01:01:29;2.77;;;1.47;;
15712;SDS011;7957;51.608;6.916;2022-09-09T01:03:56;2.77;;;1.50;;
15712;SDS011;7957;51.608;6.916;2022-09-09T01:06:26;1.80;;;1.43;;
15712;SDS011;7957;51.608;6.916;2022-09-09T01:09:03;2.17;;;1.63;;
15712;SDS011;7957;51.608;6.916;2022-09-09T01:11:41;2.70;;;1.43;;
15712;SDS011;7957;51.608;6.916;2022-09-09T01:14:20;3.37;;;1.50;;
15712;SDS011;7957;51.608;6.916;2022-09-09T01:16:58;1.80;;;1.40;;
15712;SDS011;7957;51.608;6.916;2022-09-09T01:19:33;2.20;;;1.60;;
15712;SDS011;7957;51.608;6.916;2022-09-09T01:22:11;1.60;;;1.30;;
15712;SDS011;7957;51.608;6.916;2022-09-09T01:24:50;2.33;;;1.57;;
15712;SDS011;7957;51.608;6.916;2022-09-09T01:27:37;3.20;;;1.53;;
15712;SDS011;7957;51.608;6.916;2022-09-09T01:30:08;2.00;;;1.60;;
15712;SDS011;7957;51.608;6.916;2022-09-09T01:32:38;1.77;;;1.47;;
15712;SDS011;7957;51.608;6.916;2022-09-09T01:35:09;2.70;;;1.60;;
15712;SDS011;7957;51.608;6.916;2022-09-09T01:37:39;2.33;;;1.47;;
15712;SDS011;7957;51.608;6.916;2022-09-09T01:40:07;2.90;;;1.50;;
15712;SDS011;7957;51.608;6.916;2022-09-09T01:42:34;2.97;;;1.67;;
15712;SDS011;7957;51.608;6.916;2022-09-09T01:45:03;2.10;;;1.57;;
15712;SDS011;7957;51.608;6.916;2022-09-09T01:47:31;2.63;;;1.53;;
15712;SDS011;7957;51.608;6.916;2022-09-09T01:49:58;2.73;;;1.60;;
15712;SDS011;7957;51.608;6.916;2022-09-09T01:52:26;1.80;;;1.30;;
15712;SDS011;7957;51.608;6.916;2022-09-09T01:54:53;2.00;;;1.37;;
15712;SDS011;7957;51.608;6.916;2022-09-09T01:57:21;1.30;;;1.10;;
15712;SDS011;7957;51.608;6.916;2022-09-09T01:59:54;1.97;;;1.20;;
15712;SDS011;7957;51.608;6.916;2022-09-09T02:02:38;1.40;;;1.30;;
15712;SDS011;7957;51.608;6.916;2022-09-09T02:05:16;1.30;;;0.97;;
15712;SDS011;7957;51.608;6.916;2022-09-09T02:07:49;2.03;;;1.40;;
15712;SDS011;7957;51.608;6.916;2022-09-09T02:10:21;2.97;;;1.30;;
15712;SDS011;7957;51.608;6.916;2022-09-09T02:12:53;1.73;;;1.40;;
15712;SDS011;7957;51.608;6.916;2022-09-09T02:15:23;2.00;;;1.30;;
15712;SDS011;7957;51.608;6.916;2022-09-09T02:17:58;1.20;;;1.10;;
15712;SDS011;7957;51.608;6.916;2022-09-09T02:20:33;2.83;;;1.57;;
15712;SDS011;7957;51.608;6.916;2022-09-09T02:23:01;2.63;;;1.47;;
15712;SDS011;7957;51.608;6.916;2022-09-09T02:25:30;1.67;;;1.23;;
15712;SDS011;7957;51.608;6.916;2022-09-09T02:27:57;2.00;;;1.47;;
15712;SDS011;7957;51.608;6.916;2022-09-09T02:30:24;1.87;;;1.53;;
15712;SDS011;7957;51.608;6.916;2022-09-09T02:32:53;1.60;;;1.10;;
15712;SDS011;7957;51.608;6.916;2022-09-09T02:35:24;3.30;;;1.20;;
15712;SDS011;7957;51.608;6.916;2022-09-09T02:37:52;2.77;;;1.30;;
15712;SDS011;7957;51.608;6.916;2022-09-09T02:40:24;1.63;;;1.43;;
15712;SDS011;7957;51.608;6.916;2022-09-09T02:42:51;2.57;;;1.30;;
15712;SDS011;7957;51.608;6.916;2022-09-09T02:45:21;1.63;;;1.27;;
15712;SDS011;7957;51.608;6.916;2022-09-09T02:47:51;2.40;;;1.50;;
15712;SDS011;7957;51.608;6.916;2022-09-09T02:50:28;1.47;;;1.30;;
15712;SDS011;7957;51.608;6.916;2022-09-09T02:53:02;1.97;;;1.27;;
15712;SDS011;7957;51.608;6.916;2022-09-09T02:55:37;2.07;;;1.40;;
15712;SDS011;7957;51.608;6.916;2022-09-09T02:58:08;2.23;;;1.30;;
15712;SDS011;7957;51.608;6.916;2022-09-09T03:00:37;1.93;;;1.40;;
15712;SDS011;7957;51.608;6.916;2022-09-09T03:03:05;2.70;;;1.50;;
15712;SDS011;7957;51.608;6.916;2022-09-09T03:05:35;2.97;;;1.43;;
15712;SDS011;7957;51.608;6.916;2022-09-09T03:08:02;1.43;;;1.20;;
15712;SDS011;7957;51.608;6.916;2022-09-09T03:10:29;1.53;;;1.30;;
15712;SDS011;7957;51.608;6.916;2022-09-09T03:12:55;1.77;;;1.20;;
15712;SDS011;7957;51.608;6.916;2022-09-09T03:15:22;2.90;;;1.30;;
15712;SDS011;7957;51.608;6.916;2022-09-09T03:17:54;3.77;;;1.33;;
15712;SDS011;7957;51.608;6.916;2022-09-09T03:20:21;3.07;;;1.40;;
15712;SDS011;7957;51.608;6.916;2022-09-09T03:22:52;1.63;;;1.23;;
15712;SDS011;7957;51.608;6.916;2022-09-09T03:25:19;2.93;;;1.50;;
15712;SDS011;7957;51.608;6.916;2022-09-09T03:27:48;2.17;;;1.40;;
15712;SDS011;7957;51.608;6.916;2022-09-09T03:30:19;2.00;;;1.30;;
15712;SDS011;7957;51.608;6.916;2022-09-09T03:32:46;4.17;;;1.40;;
15712;SDS011;7957;51.608;6.916;2022-09-09T03:35:13;1.97;;;1.10;;
15712;SDS011;7957;51.608;6.916;2022-09-09T03:37:41;2.90;;;1.27;;
15712;SDS011;7957;51.608;6.916;2022-09-09T03:40:10;1.63;;;1.37;;
15712;SDS011;7957;51.608;6.916;2022-09-09T03:42:38;2.70;;;1.63;;
15712;SDS011;7957;51.608;6.916;2022-09-09T03:45:06;3.60;;;1.60;;
15712;SDS011;7957;51.608;6.916;2022-09-09T03:47:40;2.37;;;1.47;;
15712;SDS011;7957;51.608;6.916;2022-09-09T03:50:08;3.83;;;1.60;;
15712;SDS011;7957;51.608;6.916;2022-09-09T03:52:36;2.77;;;1.30;;
15712;SDS011;7957;51.608;6.916;2022-09-09T03:55:04;1.93;;;1.60;;
15712;SDS011;7957;51.608;6.916;2022-09-09T03:57:33;2.77;;;1.53;;
15712;SDS011;7957;51.608;6.916;2022-09-09T04:00:01;2.30;;;1.57;;
15712;SDS011;7957;51.608;6.916;2022-09-09T04:02:28;1.87;;;1.30;;
15712;SDS011;7957;51.608;6.916;2022-09-09T04:04:55;3.43;;;1.70;;
15712;SDS011;7957;51.608;6.916;2022-09-09T04:07:22;3.80;;;1.50;;
15712;SDS011;7957;51.608;6.916;2022-09-09T04:09:49;2.80;;;1.70;;
15712;SDS011;7957;51.608;6.916;2022-09-09T04:12:16;2.43;;;1.53;;
15712;SDS011;7957;51.608;6.916;2022-09-09T04:14:44;2.90;;;1.60;;
15712;SDS011;7957;51.608;6.916;2022-09-09T04:17:11;2.43;;;1.50;;
15712;SDS011;7957;51.608;6.916;2022-09-09T04:19:38;2.03;;;1.40;;
15712;SDS011;7957;51.608;6.916;2022-09-09T04:22:05;2.73;;;1.60;;
15712;SDS011;7957;51.608;6.916;2022-09-09T04:24:32;2.50;;;1.80;;
15712;SDS011;7957;51.608;6.916;2022-09-09T04:27:00;2.67;;;1.80;;
15712;SDS011;7957;51.608;6.916;2022-09-09T04:29:27;3.13;;;1.60;;
15712;SDS011;7957;51.608;6.916;2022-09-09T04:31:55;2.80;;;1.60;;
15712;SDS011;7957;51.608;6.916;2022-09-09T04:34:22;2.80;;;1.63;;
15712;SDS011;7957;51.608;6.916;2022-09-09T04:36:49;4.33;;;1.70;;
15712;SDS011;7957;51.608;6.916;2022-09-09T04:39:16;3.20;;;1.90;;
15712;SDS011;7957;51.608;6.916;2022-09-09T04:41:44;2.27;;;1.60;;
15712;SDS011;7957;51.608;6.916;2022-09-09T04:44:12;3.07;;;1.50;;
15712;SDS011;7957;51.608;6.916;2022-09-09T04:46:39;3.93;;;2.03;;
15712;SDS011;7957;51.608;6.916;2022-09-09T04:49:07;2.50;;;1.60;;
15712;SDS011;7957;51.608;6.916;2022-09-09T04:51:34;2.40;;;1.40;;
15712;SDS011;7957;51.608;6.916;2022-09-09T04:54:01;3.07;;;1.77;;
15712;SDS011;7957;51.608;6.916;2022-09-09T04:56:28;3.00;;;1.83;;
15712;SDS011;7957;51.608;6.916;2022-09-09T04:58:55;3.30;;;1.70;;
15712;SDS011;7957;51.608;6.916;2022-09-09T05:01:22;5.43;;;1.90;;
15712;SDS011;7957;51.608;6.916;2022-09-09T05:03:49;2.53;;;1.60;;
15712;SDS011;7957;51.608;6.916;2022-09-09T05:06:20;3.40;;;1.80;;
15712;SDS011;7957;51.608;6.916;2022-09-09T05:08:48;3.23;;;1.73;;
15712;SDS011;7957;51.608;6.916;2022-09-09T05:11:16;3.03;;;1.70;;
15712;SDS011;7957;51.608;6.916;2022-09-09T05:13:45;3.43;;;1.90;;
15712;SDS011;7957;51.608;6.916;2022-09-09T05:16:12;2.50;;;1.70;;
15712;SDS011;7957;51.608;6.916;2022-09-09T05:18:40;5.27;;;2.23;;
15712;SDS011;7957;51.608;6.916;2022-09-09T05:21:07;4.37;;;1.73;;
15712;SDS011;7957;51.608;6.916;2022-09-09T05:23:37;2.93;;;1.80;;
15712;SDS011;7957;51.608;6.916;2022-09-09T05:26:05;2.03;;;1.80;;
15712;SDS011;7957;51.608;6.916;2022-09-09T05:28:33;2.97;;;2.07;;
15712;SDS011;7957;51.608;6.916;2022-09-09T05:31:01;3.07;;;1.90;;
15712;SDS011;7957;51.608;6.916;2022-09-09T05:33:30;3.57;;;1.70;;
15712;SDS011;7957;51.608;6.916;2022-09-09T05:35:58;2.90;;;1.90;;
15712;SDS011;7957;51.608;6.916;2022-09-09T05:38:26;3.60;;;1.70;;
15712;SDS011;7957;51.608;6.916;2022-09-09T05:40:56;3.90;;;1.90;;
15712;SDS011;7957;51.608;6.916;2022-09-09T05:43:23;2.83;;;1.90;;
15712;SDS011;7957;51.608;6.916;2022-09-09T05:45:58;3.07;;;1.70;;
15712;SDS011;7957;51.608;6.916;2022-09-09T05:48:27;4.60;;;1.93;;
15712;SDS011;7957;51.608;6.916;2022-09-09T05:50:55;3.20;;;2.07;;
15712;SDS011;7957;51.608;6.916;2022-09-09T05:53:21;4.07;;;1.60;;
15712;SDS011;7957;51.608;6.916;2022-09-09T05:55:48;3.63;;;1.90;;
15712;SDS011;7957;51.608;6.916;2022-09-09T05:58:16;4.60;;;1.97;;
15712;SDS011;7957;51.608;6.916;2022-09-09T06:00:43;4.00;;;2.17;;
15712;SDS011;7957;51.608;6.916;2022-09-09T06:03:10;4.40;;;1.80;;
15712;SDS011;7957;51.608;6.916;2022-09-09T06:05:39;2.47;;;1.80;;
15712;SDS011;7957;51.608;6.916;2022-09-09T06:08:06;3.47;;;2.00;;
15712;SDS011;7957;51.608;6.916;2022-09-09T06:10:33;3.30;;;1.70;;
15712;SDS011;7957;51.608;6.916;2022-09-09T06:13:01;2.47;;;2.10;;
15712;SDS011;7957;51.608;6.916;2022-09-09T06:15:29;5.73;;;2.17;;
15712;SDS011;7957;51.608;6.916;2022-09-09T06:17:56;3.30;;;1.90;;
15712;SDS011;7957;51.608;6.916;2022-09-09T06:20:23;2.97;;;1.70;;
15712;SDS011;7957;51.608;6.916;2022-09-09T06:22:50;4.47;;;1.83;;
15712;SDS011;7957;51.608;6.916;2022-09-09T06:25:17;3.97;;;2.00;;
15712;SDS011;7957;51.608;6.916;2022-09-09T06:27:48;4.27;;;2.10;;
15712;SDS011;7957;51.608;6.916;2022-09-09T06:30:15;3.60;;;1.80;;
15712;SDS011;7957;51.608;6.916;2022-09-09T06:32:46;3.47;;;2.10;;
15712;SDS011;7957;51.608;6.916;2022-09-09T06:35:13;2.77;;;1.80;;
15712;SDS011;7957;51.608;6.916;2022-09-09T06:37:40;4.50;;;1.83;;
15712;SDS011;7957;51.608;6.916;2022-09-09T06:40:13;4.23;;;1.73;;
15712;SDS011;7957;51.608;6.916;2022-09-09T06:42:41;4.60;;;2.07;;
15712;SDS011;7957;51.608;6.916;2022-09-09T06:45:08;3.97;;;1.90;;
15712;SDS011;7957;51.608;6.916;2022-09-09T06:47:36;4.13;;;1.83;;
15712;SDS011;7957;51.608;6.916;2022-09-09T06:50:05;3.07;;;1.80;;
15712;SDS011;7957;51.608;6.916;2022-09-09T06:52:32;5.77;;;2.17;;
15712;SDS011;7957;51.608;6.916;2022-09-09T06:54:59;3.07;;;2.10;;
15712;SDS011;7957;51.608;6.916;2022-09-09T06:57:26;3.87;;;2.10;;
15712;SDS011;7957;51.608;6.916;2022-09-09T06:59:53;4.03;;;2.07;;
15712;SDS011;7957;51.608;6.916;2022-09-09T07:02:20;3.40;;;1.90;;
15712;SDS011;7957;51.608;6.916;2022-09-09T07:04:47;4.67;;;2.13;;
15712;SDS011;7957;51.608;6.916;2022-09-09T07:07:18;3.80;;;2.13;;
15712;SDS011;7957;51.608;6.916;2022-09-09T07:09:45;4.90;;;2.20;;
15712;SDS011;7957;51.608;6.916;2022-09-09T07:12:13;7.33;;;1.97;;
15712;SDS011;7957;51.608;6.916;2022-09-09T07:14:41;6.27;;;2.30;;
15712;SDS011;7957;51.608;6.916;2022-09-09T07:17:08;3.40;;;1.80;;
15712;SDS011;7957;51.608;6.916;2022-09-09T07:19:35;3.50;;;2.10;;
15712;SDS011;7957;51.608;6.916;2022-09-09T07:22:01;5.83;;;2.20;;
15712;SDS011;7957;51.608;6.916;2022-09-09T07:24:30;5.13;;;1.93;;
15712;SDS011;7957;51.608;6.916;2022-09-09T07:26:57;4.30;;;2.33;;
15712;SDS011;7957;51.608;6.916;2022-09-09T07:29:24;4.00;;;1.93;;
15712;SDS011;7957;51.608;6.916;2022-09-09T07:31:51;5.20;;;2.53;;
15712;SDS011;7957;51.608;6.916;2022-09-09T07:34:18;5.90;;;2.17;;
15712;SDS011;7957;51.608;6.916;2022-09-09T07:36:46;3.23;;;1.80;;
15712;SDS011;7957;51.608;6.916;2022-09-09T07:39:13;3.60;;;2.13;;
15712;SDS011;7957;51.608;6.916;2022-09-09T07:41:44;3.73;;;2.03;;
15712;SDS011;7957;51.608;6.916;2022-09-09T07:44:12;2.90;;;1.90;;
15712;SDS011;7957;51.608;6.916;2022-09-09T07:46:40;5.03;;;2.10;;
15712;SDS011;7957;51.608;6.916;2022-09-09T07:49:08;4.23;;;1.97;;
15712;SDS011;7957;51.608;6.916;2022-09-09T07:51:36;4.17;;;2.03;;
15712;SDS011;7957;51.608;6.916;2022-09-09T07:54:06;5.47;;;2.17;;
15712;SDS011;7957;51.608;6.916;2022-09-09T07:56:35;4.60;;;2.17;;
15712;SDS011;7957;51.608;6.916;2022-09-09T07:59:06;4.53;;;2.20;;
15712;SDS011;7957;51.608;6.916;2022-09-09T08:01:35;5.07;;;2.30;;
15712;SDS011;7957;51.608;6.916;2022-09-09T08:04:04;4.20;;;2.20;;
15712;SDS011;7957;51.608;6.916;2022-09-09T08:06:34;4.87;;;2.17;;
15712;SDS011;7957;51.608;6.916;2022-09-09T08:09:02;3.97;;;2.23;;
15712;SDS011;7957;51.608;6.916;2022-09-09T08:11:30;4.63;;;2.10;;
15712;SDS011;7957;51.608;6.916;2022-09-09T08:13:58;4.93;;;2.37;;
15712;SDS011;7957;51.608;6.916;2022-09-09T08:16:27;6.10;;;2.63;;
15712;SDS011;7957;51.608;6.916;2022-09-09T08:18:56;4.63;;;2.20;;
15712;SDS011;7957;51.608;6.916;2022-09-09T08:21:24;6.77;;;2.30;;
15712;SDS011;7957;51.608;6.916;2022-09-09T08:23:53;6.33;;;2.40;;
15712;SDS011;7957;51.608;6.916;2022-09-09T08:26:22;4.93;;;2.73;;
15712;SDS011;7957;51.608;6.916;2022-09-09T08:28:51;6.30;;;2.63;;
15712;SDS011;7957;51.608;6.916;2022-09-09T08:31:19;5.60;;;2.60;;
15712;SDS011;7957;51.608;6.916;2022-09-09T08:33:49;4.80;;;2.40;;
15712;SDS011;7957;51.608;6.916;2022-09-09T08:36:17;6.13;;;2.67;;
15712;SDS011;7957;51.608;6.916;2022-09-09T08:38:47;8.90;;;2.50;;
15712;SDS011;7957;51.608;6.916;2022-09-09T08:44:04;6.20;;;2.50;;
15712;SDS011;7957;51.608;6.916;2022-09-09T08:46:36;5.60;;;2.70;;
15712;SDS011;7957;51.608;6.916;2022-09-09T08:49:16;4.83;;;2.43;;
15712;SDS011;7957;51.608;6.916;2022-09-09T08:51:53;4.43;;;2.40;;
15712;SDS011;7957;51.608;6.916;2022-09-09T08:54:22;4.93;;;2.60;;
15712;SDS011;7957;51.608;6.916;2022-09-09T08:56:49;6.93;;;2.70;;
15712;SDS011;7957;51.608;6.916;2022-09-09T08:59:17;7.03;;;2.43;;
15712;SDS011;7957;51.608;6.916;2022-09-09T09:01:56;6.73;;;2.37;;
15712;SDS011;7957;51.608;6.916;2022-09-09T09:04:32;6.10;;;2.40;;
15712;SDS011;7957;51.608;6.916;2022-09-09T09:07:11;6.67;;;2.40;;
15712;SDS011;7957;51.608;6.916;2022-09-09T09:09:50;6.73;;;2.60;;
15712;SDS011;7957;51.608;6.916;2022-09-09T09:12:26;6.67;;;2.63;;
15712;SDS011;7957;51.608;6.916;2022-09-09T09:14:55;6.47;;;2.33;;
15712;SDS011;7957;51.608;6.916;2022-09-09T09:17:24;6.53;;;2.40;;
15712;SDS011;7957;51.608;6.916;2022-09-09T09:19:56;4.33;;;2.10;;
15712;SDS011;7957;51.608;6.916;2022-09-09T09:22:26;5.03;;;2.07;;
15712;SDS011;7957;51.608;6.916;2022-09-09T09:25:00;6.53;;;2.50;;
15712;SDS011;7957;51.608;6.916;2022-09-09T09:27:36;7.13;;;2.20;;
15712;SDS011;7957;51.608;6.916;2022-09-09T09:30:12;5.80;;;2.23;;
15712;SDS011;7957;51.608;6.916;2022-09-09T09:32:43;3.97;;;1.97;;
15712;SDS011;7957;51.608;6.916;2022-09-09T09:35:18;5.33;;;2.20;;
15712;SDS011;7957;51.608;6.916;2022-09-09T09:37:45;6.43;;;2.40;;
15712;SDS011;7957;51.608;6.916;2022-09-09T09:40:13;6.13;;;2.20;;
15712;SDS011;7957;51.608;6.916;2022-09-09T09:42:47;5.20;;;2.13;;
15712;SDS011;7957;51.608;6.916;2022-09-09T09:45:17;6.07;;;2.57;;
15712;SDS011;7957;51.608;6.916;2022-09-09T09:47:57;6.43;;;2.30;;
15712;SDS011;7957;51.608;6.916;2022-09-09T09:50:26;5.03;;;2.33;;
15712;SDS011;7957;51.608;6.916;2022-09-09T09:52:53;4.80;;;2.20;;
15712;SDS011;7957;51.608;6.916;2022-09-09T09:55:22;4.47;;;2.17;;
15712;SDS011;7957;51.608;6.916;2022-09-09T09:57:50;4.07;;;2.30;;
15712;SDS011;7957;51.608;6.916;2022-09-09T10:00:19;5.53;;;2.27;;
15712;SDS011;7957;51.608;6.916;2022-09-09T10:02:47;7.53;;;2.63;;
15712;SDS011;7957;51.608;6.916;2022-09-09T10:05:17;4.87;;;1.97;;
15712;SDS011;7957;51.608;6.916;2022-09-09T10:07:57;6.80;;;2.20;;
15712;SDS011;7957;51.608;6.916;2022-09-09T10:10:28;4.37;;;2.13;;
15712;SDS011;7957;51.608;6.916;2022-09-09T10:13:15;4.43;;;2.00;;
15712;SDS011;7957;51.608;6.916;2022-09-09T10:15:51;5.97;;;2.30;;
15712;SDS011;7957;51.608;6.916;2022-09-09T10:21:21;4.10;;;2.10;;
15712;SDS011;7957;51.608;6.916;2022-09-09T10:24:03;6.17;;;2.00;;
15712;SDS011;7957;51.608;6.916;2022-09-09T10:26:44;3.90;;;2.13;;
15712;SDS011;7957;51.608;6.916;2022-09-09T10:29:24;3.67;;;2.10;;
15712;SDS011;7957;51.608;6.916;2022-09-09T10:32:03;5.90;;;1.83;;
15712;SDS011;7957;51.608;6.916;2022-09-09T10:34:41;5.30;;;2.30;;
15712;SDS011;7957;51.608;6.916;2022-09-09T10:37:21;3.93;;;1.90;;
15712;SDS011;7957;51.608;6.916;2022-09-09T10:40:02;4.23;;;2.07;;
15712;SDS011;7957;51.608;6.916;2022-09-09T10:42:40;4.97;;;2.20;;
15712;SDS011;7957;51.608;6.916;2022-09-09T10:45:13;5.67;;;2.33;;
15712;SDS011;7957;51.608;6.916;2022-09-09T10:50:49;4.53;;;2.13;;
15712;SDS011;7957;51.608;6.916;2022-09-09T10:53:22;4.23;;;2.00;;
15712;SDS011;7957;51.608;6.916;2022-09-09T10:56:03;3.40;;;1.80;;
15712;SDS011;7957;51.608;6.916;2022-09-09T10:58:35;4.00;;;2.03;;
15712;SDS011;7957;51.608;6.916;2022-09-09T11:01:09;4.00;;;1.90;;
15712;SDS011;7957;51.608;6.916;2022-09-09T11:03:44;3.80;;;2.00;;
15712;SDS011;7957;51.608;6.916;2022-09-09T11:06:16;3.67;;;1.90;;
15712;SDS011;7957;51.608;6.916;2022-09-09T11:08:46;3.60;;;1.80;;
15712;SDS011;7957;51.608;6.916;2022-09-09T11:11:17;4.07;;;1.87;;
15712;SDS011;7957;51.608;6.916;2022-09-09T11:13:49;4.63;;;2.23;;
15712;SDS011;7957;51.608;6.916;2022-09-09T11:16:22;4.80;;;2.20;;
15712;SDS011;7957;51.608;6.916;2022-09-09T11:18:55;5.27;;;1.70;;
15712;SDS011;7957;51.608;6.916;2022-09-09T11:21:28;3.77;;;1.80;;
15712;SDS011;7957;51.608;6.916;2022-09-09T11:23:57;5.83;;;2.30;;
15712;SDS011;7957;51.608;6.916;2022-09-09T11:26:30;5.17;;;1.80;;
15712;SDS011;7957;51.608;6.916;2022-09-09T11:29:09;3.57;;;1.60;;
15712;SDS011;7957;51.608;6.916;2022-09-09T11:31:54;5.73;;;2.00;;
15712;SDS011;7957;51.608;6.916;2022-09-09T11:34:38;6.97;;;1.97;;
15712;SDS011;7957;51.608;6.916;2022-09-09T11:37:20;3.67;;;2.00;;
15712;SDS011;7957;51.608;6.916;2022-09-09T11:43:01;4.37;;;1.83;;
15712;SDS011;7957;51.608;6.916;2022-09-09T11:45:31;4.77;;;1.80;;
15712;SDS011;7957;51.608;6.916;2022-09-09T11:48:00;5.87;;;2.53;;
15712;SDS011;7957;51.608;6.916;2022-09-09T11:50:31;3.30;;;1.90;;
15712;SDS011;7957;51.608;6.916;2022-09-09T11:53:20;4.10;;;1.90;;
15712;SDS011;7957;51.608;6.916;2022-09-09T11:55:59;4.97;;;1.90;;
15712;SDS011;7957;51.608;6.916;2022-09-09T11:58:31;3.53;;;1.70;;
15712;SDS011;7957;51.608;6.916;2022-09-09T12:01:12;4.07;;;2.07;;
15712;SDS011;7957;51.608;6.916;2022-09-09T12:04:14;3.70;;;1.90;;
15712;SDS011;7957;51.608;6.916;2022-09-09T12:06:54;3.67;;;2.10;;
15712;SDS011;7957;51.608;6.916;2022-09-09T12:09:29;3.63;;;1.80;;
15712;SDS011;7957;51.608;6.916;2022-09-09T12:12:22;2.53;;;1.77;;
15712;SDS011;7957;51.608;6.916;2022-09-09T12:14:57;4.03;;;1.77;;
15712;SDS011;7957;51.608;6.916;2022-09-09T12:17:26;2.80;;;1.70;;
15712;SDS011;7957;51.608;6.916;2022-09-09T12:20:02;2.93;;;1.77;;
15712;SDS011;7957;51.608;6.916;2022-09-09T12:22:35;4.33;;;1.83;;
15712;SDS011;7957;51.608;6.916;2022-09-09T12:25:13;3.10;;;1.70;;
15712;SDS011;7957;51.608;6.916;2022-09-09T12:27:52;2.70;;;1.63;;
15712;SDS011;7957;51.608;6.916;2022-09-09T12:30:31;2.93;;;1.63;;
15712;SDS011;7957;51.608;6.916;2022-09-09T12:33:07;6.07;;;1.60;;
15712;SDS011;7957;51.608;6.916;2022-09-09T12:35:37;3.77;;;2.03;;
15712;SDS011;7957;51.608;6.916;2022-09-09T12:38:09;4.70;;;1.70;;
15712;SDS011;7957;51.608;6.916;2022-09-09T12:40:40;2.03;;;1.30;;
15712;SDS011;7957;51.608;6.916;2022-09-09T12:43:16;3.27;;;1.57;;
15712;SDS011;7957;51.608;6.916;2022-09-09T12:45:46;3.70;;;1.40;;
15712;SDS011;7957;51.608;6.916;2022-09-09T12:48:15;3.27;;;1.50;;
15712;SDS011;7957;51.608;6.916;2022-09-09T12:50:47;3.43;;;1.60;;
15712;SDS011;7957;51.608;6.916;2022-09-09T12:53:18;2.93;;;2.00;;
15712;SDS011;7957;51.608;6.916;2022-09-09T12:55:49;4.13;;;1.80;;
15712;SDS011;7957;51.608;6.916;2022-09-09T12:58:18;2.93;;;1.67;;
15712;SDS011;7957;51.608;6.916;2022-09-09T13:00:50;4.63;;;1.70;;
15712;SDS011;7957;51.608;6.916;2022-09-09T13:03:21;3.73;;;1.77;;
15712;SDS011;7957;51.608;6.916;2022-09-09T13:05:50;3.90;;;1.57;;
15712;SDS011;7957;51.608;6.916;2022-09-09T13:08:18;4.77;;;1.90;;
15712;SDS011;7957;51.608;6.916;2022-09-09T13:10:47;2.77;;;1.40;;
15712;SDS011;7957;51.608;6.916;2022-09-09T13:13:17;1.70;;;1.23;;
15712;SDS011;7957;51.608;6.916;2022-09-09T13:15:49;4.23;;;1.77;;
15712;SDS011;7957;51.608;6.916;2022-09-09T13:18:19;3.93;;;1.50;;
15712;SDS011;7957;51.608;6.916;2022-09-09T13:20:48;2.87;;;1.50;;
15712;SDS011;7957;51.608;6.916;2022-09-09T13:23:18;3.53;;;1.80;;
15712;SDS011;7957;51.608;6.916;2022-09-09T13:25:53;1.93;;;1.43;;
15712;SDS011;7957;51.608;6.916;2022-09-09T13:28:22;2.93;;;1.73;;
15712;SDS011;7957;51.608;6.916;2022-09-09T13:30:59;3.37;;;1.43;;
15712;SDS011;7957;51.608;6.916;2022-09-09T13:33:30;3.63;;;1.60;;
15712;SDS011;7957;51.608;6.916;2022-09-09T13:35:59;3.10;;;1.57;;
15712;SDS011;7957;51.608;6.916;2022-09-09T13:38:30;2.57;;;1.50;;
15712;SDS011;7957;51.608;6.916;2022-09-09T13:41:00;2.30;;;1.40;;
15712;SDS011;7957;51.608;6.916;2022-09-09T13:43:29;5.50;;;1.80;;
15712;SDS011;7957;51.608;6.916;2022-09-09T13:46:03;2.83;;;1.70;;
15712;SDS011;7957;51.608;6.916;2022-09-09T13:48:32;3.30;;;1.70;;
15712;SDS011;7957;51.608;6.916;2022-09-09T13:51:00;3.27;;;1.50;;
15712;SDS011;7957;51.608;6.916;2022-09-09T13:53:30;2.37;;;1.40;;
15712;SDS011;7957;51.608;6.916;2022-09-09T13:55:58;3.57;;;1.60;;
15712;SDS011;7957;51.608;6.916;2022-09-09T13:58:26;3.57;;;1.70;;
15712;SDS011;7957;51.608;6.916;2022-09-09T14:00:53;3.57;;;1.60;;
15712;SDS011;7957;51.608;6.916;2022-09-09T14:03:23;1.70;;;1.33;;
15712;SDS011;7957;51.608;6.916;2022-09-09T14:05:51;3.37;;;1.83;;
15712;SDS011;7957;51.608;6.916;2022-09-09T14:08:23;3.50;;;1.90;;
15712;SDS011;7957;51.608;6.916;2022-09-09T14:10:52;3.10;;;1.77;;
15712;SDS011;7957;51.608;6.916;2022-09-09T14:13:22;3.77;;;1.80;;
15712;SDS011;7957;51.608;6.916;2022-09-09T14:15:49;4.00;;;1.80;;
15712;SDS011;7957;51.608;6.916;2022-09-09T14:18:16;4.87;;;1.93;;
15712;SDS011;7957;51.608;6.916;2022-09-09T14:20:45;4.53;;;1.90;;
15712;SDS011;7957;51.608;6.916;2022-09-09T14:23:12;2.37;;;1.47;;
15712;SDS011;7957;51.608;6.916;2022-09-09T14:25:39;3.83;;;1.97;;
15712;SDS011;7957;51.608;6.916;2022-09-09T14:28:08;2.77;;;1.70;;
15712;SDS011;7957;51.608;6.916;2022-09-09T14:30:36;2.40;;;1.70;;
15712;SDS011;7957;51.608;6.916;2022-09-09T14:33:04;2.03;;;1.60;;
15712;SDS011;7957;51.608;6.916;2022-09-09T14:35:32;4.10;;;1.73;;
15712;SDS011;7957;51.608;6.916;2022-09-09T14:38:00;3.47;;;2.03;;
15712;SDS011;7957;51.608;6.916;2022-09-09T14:40:28;3.77;;;1.70;;
15712;SDS011;7957;51.608;6.916;2022-09-09T14:42:55;4.17;;;1.97;;
15712;SDS011;7957;51.608;6.916;2022-09-09T14:45:23;2.97;;;1.70;;
15712;SDS011;7957;51.608;6.916;2022-09-09T14:47:50;3.77;;;2.10;;
15712;SDS011;7957;51.608;6.916;2022-09-09T14:50:17;3.13;;;2.00;;
15712;SDS011;7957;51.608;6.916;2022-09-09T14:52:44;5.50;;;2.20;;
15712;SDS011;7957;51.608;6.916;2022-09-09T14:55:13;4.07;;;2.07;;
15712;SDS011;7957;51.608;6.916;2022-09-09T14:57:40;5.03;;;2.23;;
15712;SDS011;7957;51.608;6.916;2022-09-09T15:00:08;3.90;;;1.93;;
15712;SDS011;7957;51.608;6.916;2022-09-09T15:02:36;4.47;;;2.00;;
15712;SDS011;7957;51.608;6.916;2022-09-09T15:05:03;4.47;;;1.80;;
15712;SDS011;7957;51.608;6.916;2022-09-09T15:07:30;5.10;;;2.27;;
15712;SDS011;7957;51.608;6.916;2022-09-09T15:09:57;4.57;;;2.10;;
15712;SDS011;7957;51.608;6.916;2022-09-09T15:12:25;7.67;;;2.70;;
15712;SDS011;7957;51.608;6.916;2022-09-09T15:14:53;5.47;;;1.93;;
15712;SDS011;7957;51.608;6.916;2022-09-09T15:17:20;8.43;;;2.10;;
15712;SDS011;7957;51.608;6.916;2022-09-09T15:19:52;6.40;;;2.27;;
15712;SDS011;7957;51.608;6.916;2022-09-09T15:22:19;5.27;;;2.30;;
15712;SDS011;7957;51.608;6.916;2022-09-09T15:24:47;5.33;;;2.13;;
15712;SDS011;7957;51.608;6.916;2022-09-09T15:27:14;3.87;;;2.20;;
15712;SDS011;7957;51.608;6.916;2022-09-09T15:29:42;3.40;;;1.70;;
15712;SDS011;7957;51.608;6.916;2022-09-09T15:32:10;4.27;;;2.00;;
15712;SDS011;7957;51.608;6.916;2022-09-09T15:34:37;5.33;;;2.20;;